Terminal Aerodrome Forecast
Issued by NWS Tampa Bay Area, FL

Home | Current Version | Previous Version | Text Only | Print | Product List | Glossary On
Versions: 1 2 3 4 5 6 7 8 9 10 11 12 13 14
220
FTUS42 KTBW 242335
TAFFMY
TAF
KFMY 242335Z 2500/2524 36010KT P6SM VCTS SCT030CB BKN050
     FM250200 VRB03KT P6SM FEW030 SCT120
     FM251700 28007KT P6SM SCT035 SCT250=

USA.gov is the U.S. government's official web portal to all federal, state and local government web resources and services.